createdAt,value
2023-01-07T00:00:50.322Z,99.90
2023-01-07T00:03:17.334Z,99.90
2023-01-07T00:05:45.394Z,99.90
2023-01-07T00:08:12.109Z,99.90
2023-01-07T00:10:38.821Z,99.90
2023-01-07T00:13:05.508Z,99.90
2023-01-07T00:15:32.201Z,99.90
2023-01-07T00:17:58.874Z,99.90
2023-01-07T00:20:25.599Z,99.90
2023-01-07T00:22:53.623Z,99.90
2023-01-07T00:25:20.342Z,99.90
2023-01-07T00:27:47.067Z,99.90
2023-01-07T00:30:14.175Z,99.90
2023-01-07T00:32:41.672Z,99.90
2023-01-07T00:35:09.163Z,99.90
2023-01-07T00:37:35.863Z,99.90
2023-01-07T00:40:04.427Z,99.90
2023-01-07T00:42:31.213Z,99.90
2023-01-07T00:44:57.954Z,99.90
2023-01-07T00:47:24.683Z,99.90
2023-01-07T00:49:51.386Z,99.90
2023-01-07T00:52:18.062Z,99.90
2023-01-07T00:54:44.757Z,99.90
2023-01-07T00:57:13.588Z,99.90
2023-01-07T00:59:40.493Z,99.90
2023-01-07T01:02:07.396Z,99.90
2023-01-07T01:04:34.694Z,99.90
2023-01-07T01:07:01.852Z,99.90
2023-01-07T01:09:28.719Z,99.90
2023-01-07T01:11:55.538Z,99.90
2023-01-07T01:14:23.645Z,99.90
2023-01-07T01:16:50.397Z,99.90
2023-01-07T01:19:17.378Z,99.90
2023-01-07T01:21:44.107Z,99.90
2023-01-07T01:24:10.917Z,99.90
2023-01-07T01:26:37.632Z,99.90
2023-01-07T01:29:04.361Z,99.90
2023-01-07T01:31:32.452Z,99.90
2023-01-07T01:33:59.199Z,99.90
2023-01-07T01:36:25.989Z,99.90
2023-01-07T01:38:52.704Z,99.90
2023-01-07T01:41:19.488Z,99.90
2023-01-07T01:43:46.320Z,99.90
2023-01-07T01:46:16.570Z,99.90
2023-01-07T01:48:48.973Z,99.90
2023-01-07T01:51:20.706Z,99.90
2023-01-07T01:53:47.706Z,99.90
2023-01-07T01:56:17.667Z,99.90
2023-01-07T01:58:50.963Z,99.90
2023-01-07T02:01:17.833Z,99.90
2023-01-07T02:03:47.507Z,99.90
2023-01-07T02:06:21.299Z,99.90
2023-01-07T02:08:48.001Z,99.90
2023-01-07T02:11:26.216Z,99.90
2023-01-07T02:14:07.871Z,99.90
2023-01-07T02:17:01.517Z,99.90
2023-01-07T02:20:00.638Z,99.90
2023-01-07T02:22:47.103Z,99.90
2023-01-07T02:25:37.664Z,99.90
2023-01-07T02:28:28.582Z,99.90
2023-01-07T02:31:35.647Z,99.90
2023-01-07T02:34:06.900Z,99.90
2023-01-07T02:36:49.256Z,99.90
2023-01-07T02:39:29.865Z,99.90
2023-01-07T02:41:59.018Z,99.90
2023-01-07T02:44:34.776Z,99.90
2023-01-07T02:47:06.543Z,99.90
2023-01-07T02:49:35.229Z,99.90
2023-01-07T02:52:20.866Z,99.90
2023-01-07T02:54:52.965Z,99.90
2023-01-07T02:57:36.855Z,99.90
2023-01-07T03:00:19.871Z,99.90
2023-01-07T03:03:02.097Z,99.90
2023-01-07T03:05:51.193Z,99.90
2023-01-07T03:08:35.015Z,99.90
2023-01-07T03:11:04.249Z,99.90
2023-01-07T03:13:37.127Z,99.90
2023-01-07T03:16:08.717Z,99.90
2023-01-07T03:18:39.815Z,99.90
2023-01-07T03:21:12.226Z,99.90
2023-01-07T03:23:42.420Z,99.90
2023-01-07T03:26:11.452Z,99.90
2023-01-07T03:28:41.131Z,99.90
2023-01-07T03:31:11.707Z,99.90
2023-01-07T03:33:42.495Z,99.90
2023-01-07T03:36:13.514Z,99.90
2023-01-07T03:38:41.514Z,99.90
2023-01-07T03:41:08.282Z,99.90
2023-01-07T03:43:35.036Z,99.90
2023-01-07T03:46:01.918Z,99.90
2023-01-07T03:48:28.783Z,99.90
2023-01-07T03:50:55.485Z,99.90
2023-01-07T03:53:23.524Z,99.90
2023-01-07T03:55:50.241Z,99.90
2023-01-07T03:58:16.938Z,99.90
2023-01-07T04:00:43.671Z,99.90
2023-01-07T04:03:10.386Z,99.90
2023-01-07T04:05:37.105Z,99.90
2023-01-07T04:08:04.118Z,99.90
2023-01-07T04:10:32.200Z,99.90
2023-01-07T04:12:58.993Z,99.90
2023-01-07T04:15:25.715Z,99.90
2023-01-07T04:17:52.518Z,99.90
2023-01-07T04:20:19.372Z,99.90
2023-01-07T04:22:46.066Z,99.90
2023-01-07T04:25:12.793Z,99.90
2023-01-07T04:27:40.891Z,99.90
2023-01-07T04:30:08.474Z,99.90
2023-01-07T04:32:35.223Z,99.90
2023-01-07T04:35:01.976Z,99.90
2023-01-07T04:37:28.694Z,99.90
2023-01-07T04:39:55.417Z,99.90
2023-01-07T04:42:22.104Z,99.90
2023-01-07T04:44:50.203Z,99.90
2023-01-07T04:47:16.916Z,99.90
2023-01-07T04:49:43.624Z,99.90
2023-01-07T04:52:10.310Z,99.90
2023-01-07T04:54:37.032Z,99.90
2023-01-07T04:57:03.828Z,99.90
2023-01-07T04:59:30.531Z,99.90
2023-01-07T05:01:58.655Z,99.90
2023-01-07T05:04:25.560Z,99.90
2023-01-07T05:06:52.392Z,99.90
2023-01-07T05:09:19.092Z,99.90
2023-01-07T05:11:45.804Z,99.90
2023-01-07T05:14:13.024Z,99.90
2023-01-07T05:16:39.768Z,99.90
2023-01-07T05:19:07.828Z,99.90
2023-01-07T05:21:34.543Z,99.90
2023-01-07T05:24:01.284Z,99.90
2023-01-07T05:26:28.064Z,99.90
2023-01-07T05:28:54.796Z,99.90
2023-01-07T05:31:21.702Z,99.90
2023-01-07T05:33:48.447Z,99.90
2023-01-07T05:36:16.508Z,99.90
2023-01-07T05:38:43.227Z,99.90
2023-01-07T05:41:09.918Z,99.90
2023-01-07T05:43:36.613Z,99.90
2023-01-07T05:46:03.503Z,99.90
2023-01-07T05:48:30.223Z,99.90
2023-01-07T05:50:57.007Z,99.90
2023-01-07T05:53:25.044Z,99.90
2023-01-07T05:55:55.889Z,99.90
2023-01-07T05:58:22.632Z,99.90
2023-01-07T06:00:49.348Z,99.90
2023-01-07T06:03:16.144Z,99.90
2023-01-07T06:05:42.967Z,99.90
2023-01-07T06:08:09.697Z,99.90
2023-01-07T06:10:37.743Z,99.90
2023-01-07T06:13:04.697Z,99.90
2023-01-07T06:15:31.502Z,99.90
2023-01-07T06:17:58.254Z,99.90
2023-01-07T06:20:25.373Z,99.90
2023-01-07T06:22:52.122Z,99.90
2023-01-07T06:25:18.827Z,99.90
2023-01-07T06:27:46.876Z,99.90
2023-01-07T06:30:13.926Z,99.90
2023-01-07T06:32:42.440Z,99.90
2023-01-07T06:35:11.251Z,99.90
2023-01-07T06:37:38.115Z,99.90
2023-01-07T06:40:05.825Z,99.90
2023-01-07T06:42:32.542Z,99.90
2023-01-07T06:45:00.581Z,99.90
2023-01-07T06:47:27.276Z,99.90
2023-01-07T06:49:53.997Z,99.90
2023-01-07T06:52:20.852Z,99.90
2023-01-07T06:54:48.573Z,99.90
2023-01-07T06:57:15.557Z,99.90
2023-01-07T06:59:42.304Z,99.90
2023-01-07T07:02:18.645Z,99.90
2023-01-07T07:04:45.452Z,99.90
2023-01-07T07:07:12.166Z,99.90
2023-01-07T07:09:38.883Z,99.90
2023-01-07T07:12:06.006Z,99.90
2023-01-07T07:14:32.774Z,99.90
2023-01-07T07:16:59.598Z,99.90
2023-01-07T07:19:27.726Z,99.90
2023-01-07T07:21:54.430Z,99.90
2023-01-07T07:24:21.210Z,99.90
2023-01-07T07:26:47.956Z,99.90
2023-01-07T07:29:14.791Z,99.90
2023-01-07T07:31:41.615Z,99.90
2023-01-07T07:34:09.740Z,99.90
2023-01-07T07:36:38.049Z,99.90
2023-01-07T07:39:05.197Z,99.90
2023-01-07T07:41:31.920Z,99.90
2023-01-07T07:43:58.617Z,99.90
2023-01-07T07:46:25.452Z,99.90
2023-01-07T07:48:52.310Z,99.90
2023-01-07T07:51:19.101Z,99.90
2023-01-07T07:53:47.154Z,99.90
2023-01-07T07:56:13.905Z,99.90
2023-01-07T07:58:40.627Z,99.90
2023-01-07T08:01:07.431Z,99.90
2023-01-07T08:03:34.237Z,99.90
2023-01-07T08:06:01.003Z,99.90
2023-01-07T08:08:27.731Z,99.90
2023-01-07T08:10:56.493Z,99.90
2023-01-07T08:13:23.487Z,99.90
2023-01-07T08:15:50.226Z,99.90
2023-01-07T08:18:17.358Z,99.90
2023-01-07T08:20:44.022Z,99.90
2023-01-07T08:23:10.928Z,99.90
2023-01-07T08:25:37.671Z,99.90
2023-01-07T08:28:05.922Z,99.90
2023-01-07T08:30:32.746Z,99.90
2023-01-07T08:32:59.877Z,99.90
2023-01-07T08:35:26.635Z,99.90
2023-01-07T08:38:00.821Z,99.90
2023-01-07T08:40:27.376Z,99.90
2023-01-07T08:42:58.057Z,99.90
2023-01-07T08:45:26.181Z,99.90
2023-01-07T08:47:52.950Z,99.90
2023-01-07T08:50:19.674Z,99.90
2023-01-07T08:52:46.755Z,99.90
2023-01-07T08:55:14.767Z,99.90
2023-01-07T08:57:41.597Z,99.90
2023-01-07T09:00:09.546Z,99.90
2023-01-07T09:02:37.716Z,99.90
2023-01-07T09:05:05.487Z,99.90
2023-01-07T09:07:32.251Z,99.90
2023-01-07T09:09:59.027Z,99.90
2023-01-07T09:12:25.944Z,99.90
2023-01-07T09:14:52.709Z,99.90
2023-01-07T09:17:19.435Z,99.90
2023-01-07T09:19:47.615Z,99.90
2023-01-07T09:22:14.331Z,99.90
2023-01-07T09:24:41.033Z,99.90
2023-01-07T09:27:07.696Z,99.90
2023-01-07T09:29:34.426Z,99.90
2023-01-07T09:32:01.151Z,99.90
2023-01-07T09:34:27.850Z,99.90
2023-01-07T09:36:55.913Z,99.90
2023-01-07T09:39:22.616Z,99.90
2023-01-07T09:41:58.504Z,99.90
2023-01-07T09:44:38.253Z,99.90
2023-01-07T09:47:06.353Z,99.90
2023-01-07T09:49:33.111Z,99.90
2023-01-07T09:52:08.332Z,99.90
2023-01-07T09:54:37.837Z,99.90
2023-01-07T09:57:05.172Z,99.90
2023-01-07T09:59:32.599Z,99.90
2023-01-07T10:02:13.029Z,99.90
2023-01-07T10:04:44.336Z,99.90
2023-01-07T10:07:28.274Z,99.90
2023-01-07T10:10:08.901Z,99.90
2023-01-07T10:12:41.553Z,99.90
2023-01-07T10:15:19.154Z,99.90
2023-01-07T10:18:02.992Z,99.90
2023-01-07T10:20:37.610Z,99.90
2023-01-07T10:23:11.365Z,99.90
2023-01-07T10:25:43.208Z,99.90
2023-01-07T10:28:14.134Z,99.90
2023-01-07T10:30:44.506Z,99.90
2023-01-07T10:33:20.237Z,99.90
2023-01-07T10:35:48.894Z,99.90
2023-01-07T10:38:19.966Z,99.90
2023-01-07T10:40:51.161Z,99.90
2023-01-07T10:43:31.375Z,99.90
2023-01-07T10:46:17.448Z,99.90
2023-01-07T10:48:58.948Z,99.90
2023-01-07T10:51:51.353Z,99.90
2023-01-07T10:54:34.100Z,99.90
2023-01-07T10:57:06.455Z,99.90
2023-01-07T10:59:33.574Z,99.90
2023-01-07T11:02:01.288Z,99.90
2023-01-07T11:04:28.228Z,99.90
2023-01-07T11:06:58.798Z,99.90
2023-01-07T11:09:29.507Z,99.90
2023-01-07T11:12:00.814Z,99.90
2023-01-07T11:14:30.788Z,99.90
2023-01-07T11:17:08.346Z,99.90
2023-01-07T11:19:44.123Z,99.90
2023-01-07T11:22:29.457Z,99.90
2023-01-07T11:24:59.103Z,99.90
2023-01-07T11:27:28.803Z,99.90
2023-01-07T11:29:58.944Z,99.90
2023-01-07T11:32:28.372Z,99.90
2023-01-07T11:34:57.204Z,99.90
2023-01-07T11:37:32.823Z,99.90
2023-01-07T11:40:03.242Z,99.90
2023-01-07T11:42:30.053Z,99.90
2023-01-07T11:45:08.988Z,99.90
2023-01-07T11:47:37.754Z,99.90
2023-01-07T11:50:04.944Z,99.90
2023-01-07T11:52:32.305Z,99.90
2023-01-07T11:55:00.476Z,99.90
2023-01-07T11:57:27.838Z,99.90
2023-01-07T12:00:11.358Z,99.90
2023-01-07T12:02:38.111Z,99.90
2023-01-07T12:05:21.532Z,99.90
2023-01-07T12:07:50.164Z,99.90
2023-01-07T12:10:30.755Z,99.90
2023-01-07T12:12:59.551Z,99.90
2023-01-07T12:15:28.753Z,99.90
2023-01-07T12:18:24.052Z,99.90
2023-01-07T12:21:18.545Z,99.90
2023-01-07T12:23:56.496Z,99.90
2023-01-07T12:26:29.527Z,99.90
2023-01-07T12:29:07.735Z,99.90
2023-01-07T12:31:44.140Z,99.90
2023-01-07T12:34:21.216Z,99.90
2023-01-07T12:36:53.428Z,99.90
2023-01-07T12:39:26.466Z,99.90
2023-01-07T12:42:02.130Z,99.90
2023-01-07T12:44:28.919Z,99.90
2023-01-07T12:47:32.148Z,99.90
2023-01-07T12:49:56.259Z,99.90
2023-01-07T12:52:31.891Z,99.90
2023-01-07T12:55:02.394Z,99.90
2023-01-07T12:57:34.621Z,99.90
2023-01-07T13:00:06.771Z,99.90
2023-01-07T13:02:38.968Z,99.90
2023-01-07T13:05:15.196Z,99.90
2023-01-07T13:07:49.001Z,99.90
2023-01-07T13:10:20.670Z,99.90
2023-01-07T13:12:51.940Z,99.90
2023-01-07T13:15:22.235Z,99.90
2023-01-07T13:17:51.013Z,99.90
2023-01-07T13:20:40.141Z,99.90
2023-01-07T13:23:11.808Z,99.90
2023-01-07T13:25:50.271Z,99.90
2023-01-07T13:28:43.687Z,99.90
2023-01-07T13:31:27.233Z,99.90
2023-01-07T13:34:04.842Z,99.90
2023-01-07T13:36:39.118Z,99.90
2023-01-07T13:39:28.261Z,99.90
2023-01-07T13:42:14.320Z,99.90
2023-01-07T13:44:59.404Z,99.90
2023-01-07T13:47:33.826Z,99.90
2023-01-07T13:50:02.386Z,99.90
2023-01-07T13:52:32.177Z,99.90
2023-01-07T13:55:01.155Z,99.90
2023-01-07T13:57:42.676Z,99.90
2023-01-07T14:00:39.932Z,99.90
2023-01-07T14:03:35.481Z,99.90
2023-01-07T14:06:41.960Z,99.90
2023-01-07T14:09:29.509Z,99.90
2023-01-07T14:12:41.283Z,99.90
2023-01-07T14:15:49.375Z,99.90
2023-01-07T14:18:57.763Z,99.90
2023-01-07T14:21:51.611Z,99.90
2023-01-07T14:24:40.354Z,99.90
2023-01-07T14:27:29.456Z,99.90
2023-01-07T14:30:02.860Z,99.90
2023-01-07T14:32:39.681Z,99.90
2023-01-07T14:35:21.945Z,99.90
2023-01-07T14:37:48.720Z,99.90
2023-01-07T14:40:58.180Z,99.90
2023-01-07T14:43:47.976Z,99.90
2023-01-07T14:46:47.534Z,99.90
2023-01-07T14:49:48.598Z,99.90
2023-01-07T14:52:35.437Z,99.90
2023-01-07T14:55:32.346Z,99.90
2023-01-07T14:58:14.534Z,99.90
2023-01-07T15:01:22.280Z,99.90
2023-01-07T15:03:57.418Z,99.90
2023-01-07T15:06:28.560Z,99.90
2023-01-07T15:09:02.531Z,99.90
2023-01-07T15:11:31.183Z,99.90
2023-01-07T15:14:00.713Z,99.90
2023-01-07T15:16:30.182Z,99.90
2023-01-07T15:18:57.198Z,99.90
2023-01-07T15:21:35.265Z,99.90
2023-01-07T15:24:14.473Z,99.90
2023-01-07T15:26:49.359Z,99.90
2023-01-07T15:29:24.806Z,99.90
2023-01-07T15:31:59.376Z,99.90
2023-01-07T15:34:30.317Z,99.90
2023-01-07T15:36:59.282Z,99.90
2023-01-07T15:39:28.421Z,99.90
2023-01-07T15:41:56.344Z,99.90
2023-01-07T15:44:29.025Z,99.90
2023-01-07T15:46:55.961Z,99.90
2023-01-07T15:49:23.949Z,99.90
2023-01-07T15:51:52.615Z,99.90
2023-01-07T15:54:27.382Z,99.90
2023-01-07T15:56:58.931Z,99.90
2023-01-07T15:59:27.944Z,99.90
2023-01-07T16:01:59.997Z,99.90
2023-01-07T16:04:31.146Z,99.90
2023-01-07T16:06:59.845Z,99.90
2023-01-07T16:09:29.186Z,99.90
2023-01-07T16:11:55.906Z,99.90
2023-01-07T16:14:24.907Z,99.90
2023-01-07T16:17:11.858Z,99.90
2023-01-07T16:19:38.563Z,99.90
2023-01-07T16:22:06.170Z,99.90
2023-01-07T16:24:35.068Z,99.90
2023-01-07T16:27:05.131Z,99.90
2023-01-07T16:29:36.270Z,99.90
2023-01-07T16:32:05.939Z,99.90
2023-01-07T16:34:59.999Z,99.90
2023-01-07T16:37:28.031Z,99.90
2023-01-07T16:39:56.472Z,99.90
2023-01-07T16:42:23.918Z,99.90
2023-01-07T16:44:59.721Z,99.90
2023-01-07T16:47:27.985Z,99.90
2023-01-07T16:49:55.731Z,99.90
2023-01-07T16:52:31.715Z,99.90
2023-01-07T16:55:00.039Z,99.90
2023-01-07T16:57:33.849Z,99.90
2023-01-07T17:00:02.339Z,99.90
2023-01-07T17:02:33.288Z,99.90
2023-01-07T17:05:18.304Z,99.90
2023-01-07T17:07:47.324Z,99.90
2023-01-07T17:10:26.308Z,99.90
2023-01-07T17:12:58.842Z,99.90
2023-01-07T17:15:37.427Z,99.90
2023-01-07T17:18:26.534Z,99.90
2023-01-07T17:20:54.829Z,99.90
2023-01-07T17:23:42.459Z,99.90
2023-01-07T17:26:19.940Z,99.90
2023-01-07T17:28:50.320Z,99.90
2023-01-07T17:31:17.562Z,99.90
2023-01-07T17:33:44.520Z,99.90
2023-01-07T17:36:16.373Z,99.90
2023-01-07T17:38:43.356Z,99.20
2023-01-07T17:41:12.611Z,99.20
2023-01-07T17:43:40.662Z,99.70
2023-01-07T17:46:11.033Z,99.90
2023-01-07T17:48:38.188Z,99.60
2023-01-07T17:51:06.039Z,98.80
2023-01-07T17:53:38.228Z,97.80
2023-01-07T17:56:05.544Z,98.40
2023-01-07T17:58:33.408Z,97.70
2023-01-07T18:01:06.875Z,98.00
2023-01-07T18:03:33.807Z,98.10
2023-01-07T18:06:00.565Z,97.30
2023-01-07T18:08:27.276Z,97.80
2023-01-07T18:10:55.015Z,98.60
2023-01-07T18:13:21.829Z,98.90
2023-01-07T18:15:48.517Z,99.80
2023-01-07T18:18:16.556Z,99.80
2023-01-07T18:20:43.295Z,99.90
2023-01-07T18:23:11.601Z,99.90
2023-01-07T18:25:38.411Z,99.90
2023-01-07T18:28:05.171Z,99.90
2023-01-07T18:30:31.882Z,99.90
2023-01-07T18:32:58.590Z,99.90
2023-01-07T18:35:26.647Z,99.90
2023-01-07T18:37:53.352Z,99.90
2023-01-07T18:40:20.499Z,99.90
2023-01-07T18:42:47.259Z,99.50
2023-01-07T18:45:14.261Z,98.20
2023-01-07T18:47:41.271Z,99.50
2023-01-07T18:50:08.385Z,99.10
2023-01-07T18:52:37.435Z,97.30
2023-01-07T18:55:04.866Z,98.60
2023-01-07T18:57:32.421Z,98.30
2023-01-07T18:59:59.129Z,97.20
2023-01-07T19:02:25.844Z,97.70
2023-01-07T19:04:52.550Z,97.20
2023-01-07T19:07:19.668Z,97.60
2023-01-07T19:09:47.778Z,97.20
2023-01-07T19:12:14.583Z,97.00
2023-01-07T19:14:41.612Z,98.30
2023-01-07T19:17:08.809Z,97.30
2023-01-07T19:19:47.476Z,96.50
2023-01-07T19:22:15.408Z,96.10
2023-01-07T19:24:42.132Z,96.70
2023-01-07T19:27:10.243Z,96.90
2023-01-07T19:29:36.936Z,96.80
2023-01-07T19:32:04.310Z,96.60
2023-01-07T19:34:31.093Z,96.60
2023-01-07T19:36:57.833Z,96.20
2023-01-07T19:39:24.586Z,96.10
2023-01-07T19:41:51.642Z,95.50
2023-01-07T19:44:19.690Z,95.90
2023-01-07T19:46:46.736Z,96.70
2023-01-07T19:49:13.486Z,96.40
2023-01-07T19:51:41.564Z,96.60
2023-01-07T19:54:11.671Z,96.20
2023-01-07T19:56:38.489Z,95.60
2023-01-07T19:59:05.205Z,96.60
2023-01-07T20:01:33.376Z,98.10
2023-01-07T20:04:00.744Z,97.80
2023-01-07T20:06:29.073Z,97.60
2023-01-07T20:08:57.102Z,97.30
2023-01-07T20:11:24.915Z,96.40
2023-01-07T20:13:51.688Z,96.70
2023-01-07T20:16:20.408Z,96.40
2023-01-07T20:18:51.147Z,95.80
2023-01-07T20:21:19.484Z,95.60
2023-01-07T20:23:46.535Z,95.30
2023-01-07T20:26:15.113Z,95.30
2023-01-07T20:28:42.686Z,95.50
2023-01-07T20:31:11.390Z,95.10
2023-01-07T20:33:38.102Z,95.70
2023-01-07T20:36:08.452Z,95.80
2023-01-07T20:38:35.246Z,95.70
2023-01-07T20:41:03.141Z,95.30
2023-01-07T20:43:29.871Z,95.00
2023-01-07T20:45:58.742Z,94.90
2023-01-07T20:48:25.561Z,95.00
2023-01-07T20:50:52.281Z,93.70
2023-01-07T20:53:20.472Z,94.90
2023-01-07T20:55:47.214Z,95.90
2023-01-07T20:58:13.964Z,96.30
2023-01-07T21:00:41.810Z,95.50
2023-01-07T21:03:08.649Z,95.00
2023-01-07T21:05:37.655Z,94.60
2023-01-07T21:08:04.420Z,94.90
2023-01-07T21:10:32.570Z,94.40
2023-01-07T21:12:59.391Z,94.10
2023-01-07T21:15:26.124Z,94.20
2023-01-07T21:17:53.810Z,94.10
2023-01-07T21:20:20.530Z,94.40
2023-01-07T21:22:47.775Z,93.50
2023-01-07T21:25:14.540Z,93.80
2023-01-07T21:27:42.719Z,94.30
2023-01-07T21:30:11.053Z,94.30
2023-01-07T21:32:37.741Z,93.80
2023-01-07T21:35:05.237Z,94.90
2023-01-07T21:37:31.957Z,94.80
2023-01-07T21:39:58.693Z,93.60
2023-01-07T21:42:25.620Z,94.10
2023-01-07T21:44:53.670Z,94.00
2023-01-07T21:47:20.415Z,93.10
2023-01-07T21:49:47.132Z,93.10
2023-01-07T21:52:13.807Z,92.90
2023-01-07T21:54:40.525Z,93.20
2023-01-07T21:57:07.279Z,93.60
2023-01-07T21:59:34.016Z,92.80
2023-01-07T22:02:02.216Z,93.60
2023-01-07T22:04:29.849Z,92.90
2023-01-07T22:06:56.599Z,93.10
2023-01-07T22:09:23.286Z,92.60
2023-01-07T22:11:50.000Z,93.10
2023-01-07T22:14:18.723Z,93.00
2023-01-07T22:16:48.132Z,92.60
2023-01-07T22:19:17.025Z,92.50
2023-01-07T22:21:43.745Z,92.90
2023-01-07T22:24:10.524Z,92.30
2023-01-07T22:26:37.197Z,92.70
2023-01-07T22:29:07.220Z,93.00
2023-01-07T22:31:36.047Z,93.40
2023-01-07T22:34:02.859Z,93.20
2023-01-07T22:36:38.159Z,93.00
2023-01-07T22:39:09.220Z,92.70
2023-01-07T22:41:36.425Z,93.30
2023-01-07T22:44:08.339Z,93.30
2023-01-07T22:46:38.023Z,92.60
2023-01-07T22:49:05.071Z,92.70
2023-01-07T22:51:38.801Z,92.30
2023-01-07T22:54:05.954Z,92.20
2023-01-07T22:56:33.229Z,91.90
2023-01-07T22:58:59.956Z,91.50
2023-01-07T23:01:26.718Z,91.90
2023-01-07T23:03:53.623Z,91.70
2023-01-07T23:06:20.545Z,91.70
2023-01-07T23:08:48.598Z,91.70
2023-01-07T23:11:15.329Z,92.10
2023-01-07T23:13:42.019Z,93.70
2023-01-07T23:16:08.996Z,96.20
2023-01-07T23:18:35.700Z,95.70
2023-01-07T23:21:04.339Z,95.20
2023-01-07T23:23:31.043Z,94.00
2023-01-07T23:25:59.202Z,93.40
2023-01-07T23:28:25.994Z,93.60
2023-01-07T23:30:52.703Z,93.40
2023-01-07T23:33:19.381Z,92.80
2023-01-07T23:35:46.103Z,93.10
2023-01-07T23:38:12.825Z,92.50
2023-01-07T23:40:39.510Z,92.80
2023-01-07T23:43:07.543Z,92.80
2023-01-07T23:45:34.280Z,92.50
2023-01-07T23:48:00.990Z,92.50
2023-01-07T23:50:27.715Z,93.10
2023-01-07T23:52:54.382Z,93.20
2023-01-07T23:55:21.061Z,93.00
2023-01-07T23:57:47.748Z,92.60
